Time;durP1;ratioP1;P1;durP2;ratioP2;P2;SDS_P1;SDS_P2;PMS_P1;PMS_P2;Temp;Humidity;BMP_temperature;BMP_pressure;BME280_temperature;BME280_humidity;BME280_pressure;Samples;Min_cycle;Max_cycle;Signal;HPM_P1;HPM_P2
2022/05/01 00:02:06;;;;;;;3.80;3.03;;;;;;;17.42;66.87;101846.50;5072177;28;20028;-83
2022/05/01 00:04:32;;;;;;;4.18;3.78;;;;;;;17.32;66.93;101825.81;5070984;28;20028;-83
2022/05/01 00:06:58;;;;;;;4.38;3.17;;;;;;;17.47;66.88;101866.09;5072294;28;20028;-83
2022/05/01 00:09:23;;;;;;;4.13;3.40;;;;;;;17.47;66.86;101857.28;5072001;28;20040;-83
2022/05/01 00:11:49;;;;;;;4.72;3.10;;;;;;;17.17;67.06;101812.84;5072224;28;20676;-83
2022/05/01 00:14:15;;;;;;;6.65;3.72;;;;;;;17.46;66.85;101861.66;5071309;28;20032;-83
2022/05/01 00:16:41;;;;;;;5.05;3.50;;;;;;;17.47;66.75;101862.56;5070796;28;20028;-83
2022/05/01 00:19:08;;;;;;;4.32;3.65;;;;;;;17.44;66.82;101863.31;5070577;28;20066;-83
2022/05/01 00:21:35;;;;;;;3.95;3.20;;;;;;;17.40;66.99;101855.19;5071494;28;20024;-83
2022/05/01 00:24:00;;;;;;;3.92;3.40;;;;;;;17.44;67.00;101860.69;5070089;28;20464;-82
2022/05/01 00:26:27;;;;;;;4.43;3.67;;;;;;;17.43;67.00;101860.59;5071844;28;20024;-83
2022/05/01 00:28:53;;;;;;;4.55;3.35;;;;;;;17.39;67.20;101859.56;5070726;28;20094;-83
2022/05/01 00:31:19;;;;;;;4.63;3.20;;;;;;;17.32;66.95;101841.66;5071135;28;20032;-84
2022/05/01 00:36:29;;;;;;;3.97;3.28;;;;;;;17.39;67.35;101870.13;5071569;28;20071;-83
2022/05/01 00:38:56;;;;;;;3.95;3.30;;;;;;;17.39;66.95;101867.47;5071915;28;20017;-83
2022/05/01 00:41:23;;;;;;;4.55;3.45;;;;;;;17.25;67.03;101836.94;5071162;28;20120;-83
2022/05/01 00:44:06;;;;;;;4.35;3.22;;;;;;;17.36;67.33;101858.56;5071834;28;20020;-83
2022/05/01 00:46:33;;;;;;;4.32;3.40;;;;;;;17.34;67.20;101857.56;5072476;28;20025;-83
2022/05/01 00:49:04;;;;;;;4.22;3.55;;;;;;;17.16;67.08;101829.50;5070504;28;20031;-83
2022/05/01 00:51:38;;;;;;;4.55;3.50;;;;;;;17.34;67.33;101861.13;5069946;28;20036;-83
2022/05/01 00:54:07;;;;;;;5.50;3.60;;;;;;;17.22;67.32;101845.63;5071231;28;20025;-83
2022/05/01 00:56:35;;;;;;;3.80;3.40;;;;;;;17.30;67.43;101859.16;5053949;28;20028;-83
2022/05/01 00:59:01;;;;;;;3.20;2.90;;;;;;;17.17;67.12;101830.44;5050174;28;20112;-83
2022/05/01 01:01:27;;;;;;;4.22;3.30;;;;;;;17.30;67.17;101854.78;5073717;28;20025;-83
2022/05/01 01:03:54;;;;;;;4.50;3.45;;;;;;;17.29;67.67;101855.63;5069092;28;20106;-83
2022/05/01 01:06:21;;;;;;;3.80;3.38;;;;;;;17.13;67.12;101833.78;5070304;28;20518;-83
2022/05/01 01:08:46;;;;;;;4.38;3.30;;;;;;;17.16;67.44;101842.72;5069997;28;20082;-83
2022/05/01 01:11:13;;;;;;;4.60;3.65;;;;;;;17.16;67.57;101842.72;5069214;28;20147;-83
2022/05/01 01:13:39;;;;;;;4.78;3.65;;;;;;;16.88;67.64;101796.63;5071450;28;20032;-83
2022/05/01 01:16:09;;;;;;;3.85;3.45;;;;;;;16.86;67.53;101787.72;5071071;28;20032;-82
2022/05/01 01:18:35;;;;;;;3.58;3.22;;;;;;;17.15;67.03;101834.75;5069688;28;20598;-82
2022/05/01 01:21:01;;;;;;;3.67;3.28;;;;;;;17.16;67.16;101840.06;5069611;28;20060;-83
2022/05/01 01:23:28;;;;;;;4.40;3.47;;;;;;;17.23;67.01;101860.66;5071127;28;20063;-82
2022/05/01 01:25:54;;;;;;;4.57;3.42;;;;;;;17.23;67.45;101865.91;5069540;28;20552;-82
2022/05/01 01:28:20;;;;;;;4.15;3.72;;;;;;;17.19;67.40;101856.06;5069278;28;20120;-83
2022/05/01 01:33:30;;;;;;;3.85;3.47;;;;;;;17.11;66.99;101835.44;5055015;28;20086;-83
2022/05/01 01:35:56;;;;;;;5.07;3.58;;;;;;;17.20;66.92;101860.50;5051330;28;20473;-82
2022/05/01 01:38:22;;;;;;;3.72;3.33;;;;;;;17.22;66.94;101863.22;5080969;28;20029;-82
2022/05/01 01:40:51;;;;;;;4.38;3.42;;;;;;;17.19;67.64;101863.97;5070684;28;20486;-82
2022/05/01 01:43:19;;;;;;;4.20;3.35;;;;;;;17.23;67.23;101872.91;5071049;28;20032;-82
2022/05/01 01:45:46;;;;;;;5.38;3.95;;;;;;;17.20;67.14;101867.50;5086766;28;20036;-82
2022/05/01 01:48:14;;;;;;;3.95;3.55;;;;;;;17.16;67.20;101860.28;5069296;28;20037;-82
2022/05/01 01:50:43;;;;;;;5.32;3.80;;;;;;;17.13;67.53;101855.78;5069631;28;20017;-82
2022/05/01 01:53:10;;;;;;;4.47;3.65;;;;;;;17.14;67.23;101859.31;5059219;28;20036;-82
2022/05/01 01:55:38;;;;;;;4.85;3.72;;;;;;;17.02;67.43;101846.50;5066564;28;20076;-82
2022/05/01 01:58:05;;;;;;;3.75;3.35;;;;;;;17.16;67.50;101876.13;5079936;28;20448;-82
2022/05/01 02:00:31;;;;;;;3.92;3.53;;;;;;;17.10;67.14;101860.91;5070891;28;20036;-83
2022/05/01 02:03:00;;;;;;;;;;;;;;;17.24;67.16;101880.00;5070262;28;20032;-82
2022/05/01 02:05:26;;;;;;;4.47;3.42;;;;;;;17.18;67.22;101888.56;5069597;28;19912;-83
2022/05/01 02:07:52;;;;;;;;;;;;;;;17.23;67.21;101883.47;5069480;28;20056;-83
2022/05/01 02:10:18;;;;;;;3.92;3.50;;;;;;;17.15;67.24;101876.97;5069484;28;19935;-82
2022/05/01 02:12:43;;;;;;;5.20;3.83;;;;;;;17.12;67.37;101874.19;5070591;28;20115;-83
2022/05/01 02:15:09;;;;;;;5.25;3.30;;;;;;;16.98;66.92;101852.47;5070571;28;20032;-83
2022/05/01 02:17:37;;;;;;;6.15;3.80;;;;;;;17.13;67.42;101884.81;5069698;28;20052;-82
2022/05/01 02:20:03;;;;;;;3.60;3.30;;;;;;;17.00;67.61;101856.06;5070761;28;20029;-82
2022/05/01 02:22:29;;;;;;;4.35;3.83;;;;;;;17.15;67.11;101871.69;5070563;28;20031;-83
2022/05/01 02:24:54;;;;;;;3.88;3.47;;;;;;;17.13;67.16;101881.28;5070753;28;20028;-83
2022/05/01 02:27:20;;;;;;;5.78;3.38;;;;;;;17.15;67.26;101879.63;5070493;28;20493;-83
2022/05/01 02:29:46;;;;;;;5.15;3.60;;;;;;;17.05;67.25;101868.63;5069520;28;20055;-83
2022/05/01 02:32:13;;;;;;;4.22;3.53;;;;;;;17.11;67.23;101875.94;5072719;28;20136;-82
2022/05/01 02:34:39;;;;;;;5.47;3.75;;;;;;;17.13;67.11;101881.28;5074352;28;20036;-83
2022/05/01 02:37:06;;;;;;;4.10;3.70;;;;;;;17.07;67.18;101877.50;5073048;28;20036;-83
2022/05/01 02:39:34;;;;;;;5.32;3.88;;;;;;;17.08;67.15;101873.13;5074276;28;20078;-83
2022/05/01 02:42:00;;;;;;;4.70;3.85;;;;;;;17.09;66.99;101885.50;5072961;28;20692;-83
2022/05/01 02:44:26;;;;;;;5.10;3.70;;;;;;;17.04;67.09;101889.69;5072828;28;20107;-83
2022/05/01 02:46:52;;;;;;;5.63;3.70;;;;;;;17.09;67.32;101889.03;5072530;28;20124;-84
2022/05/01 02:49:17;;;;;;;4.53;3.50;;;;;;;17.11;67.47;101883.84;5072591;28;20623;-83
2022/05/01 02:51:43;;;;;;;4.50;3.50;;;;;;;17.05;66.96;101876.53;5073606;28;20119;-84
2022/05/01 02:54:09;;;;;;;3.72;3.30;;;;;;;17.06;66.94;101878.38;5072393;28;20119;-83
2022/05/01 02:56:35;;;;;;;4.60;4.00;;;;;;;17.08;67.10;101887.25;5073959;28;20100;-83
2022/05/01 02:59:01;;;;;;;4.40;3.70;;;;;;;17.01;67.17;101878.97;5073761;28;20503;-83
2022/05/01 03:01:29;;;;;;;4.05;3.35;;;;;;;16.92;67.11;101858.34;5072435;28;20052;-83
2022/05/01 03:03:54;;;;;;;6.28;3.85;;;;;;;17.01;66.83;101885.16;5072953;28;20103;-83
2022/05/01 03:06:20;;;;;;;4.47;3.58;;;;;;;17.04;66.97;101884.41;5073469;28;20093;-83
2022/05/01 03:08:46;;;;;;;3.90;3.47;;;;;;;16.88;66.88;101859.06;5054562;28;20510;-83
2022/05/01 03:11:12;;;;;;;5.18;3.75;;;;;;;16.62;67.20;101820.91;5053387;28;20049;-83
2022/05/01 03:13:37;;;;;;;7.07;3.65;;;;;;;16.87;67.06;101878.38;5053491;28;20033;-83
2022/05/01 03:16:03;;;;;;;3.95;3.55;;;;;;;16.95;66.88;101895.44;5072023;28;20481;-83
2022/05/01 03:23:57;;;;;;;4.82;3.65;;;;;;;16.98;66.94;101910.53;5071984;28;20555;-83
2022/05/01 03:26:25;;;;;;;5.13;3.72;;;;;;;17.02;67.05;101925.66;5073537;28;20028;-83
2022/05/01 03:28:50;;;;;;;4.07;3.65;;;;;;;16.95;66.83;101910.34;5072964;28;20035;-83
2022/05/01 03:31:16;;;;;;;4.72;3.45;;;;;;;17.03;67.17;101936.25;5073037;28;20032;-83
2022/05/01 03:33:42;;;;;;;3.70;3.25;;;;;;;17.01;66.75;101931.75;5088825;28;20033;-83
2022/05/01 03:36:09;;;;;;;3.72;3.25;;;;;;;16.97;67.01;101928.06;5072634;28;20031;-83
2022/05/01 03:38:39;;;;;;;3.97;3.50;;;;;;;17.00;67.26;101925.59;5071903;28;20120;-83
2022/05/01 03:41:08;;;;;;;4.50;3.58;;;;;;;16.93;66.96;101915.56;5072743;28;20028;-83
2022/05/01 03:43:34;;;;;;;4.38;3.50;;;;;;;16.99;66.96;101917.59;5062410;28;20052;-83
2022/05/01 03:46:01;;;;;;;4.35;3.55;;;;;;;16.92;67.17;101910.22;5065186;28;20029;-83
2022/05/01 03:48:27;;;;;;;4.15;3.63;;;;;;;17.00;67.15;101906.22;5071612;28;20017;-83
2022/05/01 03:50:54;;;;;;;5.78;3.75;;;;;;;16.86;66.83;101898.53;5071358;28;20039;-82
2022/05/01 03:53:20;;;;;;;4.75;3.67;;;;;;;16.93;66.83;101912.03;5072643;28;20119;-83
2022/05/01 03:55:46;;;;;;;4.32;3.63;;;;;;;16.97;67.14;101916.63;5072328;28;20081;-83
2022/05/01 03:58:13;;;;;;;5.00;3.70;;;;;;;16.96;67.36;101909.53;5088122;28;20021;-82
2022/05/01 04:00:38;;;;;;;;;;;;;;;17.02;67.00;101913.38;5071828;28;20032;-83
2022/05/01 04:03:04;;;;;;;4.00;3.38;;;;;;;16.94;67.08;101911.22;5072361;28;19916;-83
2022/05/01 04:05:32;;;;;;;4.65;3.78;;;;;;;16.97;66.99;101914.88;5070847;28;20582;-83
2022/05/01 04:07:58;;;;;;;3.85;3.55;;;;;;;16.96;67.17;101913.06;5072282;28;20513;-83
2022/05/01 04:10:24;;;;;;;4.93;3.92;;;;;;;16.84;66.89;101907.22;5071117;28;20041;-83
2022/05/01 04:12:50;;;;;;;3.53;3.22;;;;;;;16.87;66.91;101925.84;5072091;28;20519;-83
2022/05/01 04:15:15;;;;;;;3.97;3.58;;;;;;;16.92;67.22;101929.59;5071377;28;20037;-83
2022/05/01 04:17:42;;;;;;;5.25;3.60;;;;;;;16.93;67.17;101934.03;5072150;28;20108;-83
2022/05/01 04:20:12;;;;;;;3.92;3.50;;;;;;;16.92;67.01;101936.63;5058506;28;20055;-83
2022/05/01 04:22:38;;;;;;;4.30;3.33;;;;;;;16.94;67.01;101938.50;5053512;28;20500;-83
2022/05/01 04:25:06;;;;;;;4.30;3.55;;;;;;;16.88;67.27;101932.94;5051066;28;20024;-83
2022/05/01 04:27:31;;;;;;;3.83;3.45;;;;;;;16.85;67.12;101917.84;5050842;28;20031;-83
2022/05/01 04:29:57;;;;;;;4.30;3.67;;;;;;;16.84;67.64;101905.47;5051971;28;20021;-83
2022/05/01 04:32:23;;;;;;;4.47;3.55;;;;;;;16.81;67.11;101899.19;5054363;28;20033;-83
2022/05/01 04:34:48;;;;;;;6.13;4.00;;;;;;;16.86;67.12;101903.81;5053391;28;20029;-82
2022/05/01 04:37:14;;;;;;;4.93;3.20;;;;;;;16.84;67.41;101900.22;5054181;28;20025;-83
2022/05/01 04:39:40;;;;;;;4.45;3.40;;;;;;;16.78;67.38;101883.16;5067159;28;20432;-82
2022/05/01 04:42:07;;;;;;;4.82;3.17;;;;;;;16.77;67.51;101878.72;5058586;28;20037;-83
2022/05/01 04:44:32;;;;;;;3.95;3.53;;;;;;;16.79;67.60;101893.78;5053310;28;20047;-82
2022/05/01 04:46:58;;;;;;;4.00;3.40;;;;;;;16.79;67.21;101888.50;5050555;28;20021;-83
2022/05/01 04:49:24;;;;;;;4.00;3.42;;;;;;;16.87;67.42;101900.38;5052174;28;20033;-83
2022/05/01 04:51:50;;;;;;;4.00;3.60;;;;;;;16.83;67.32;101898.41;5051732;28;20045;-81
2022/05/01 04:54:15;;;;;;;4.75;3.83;;;;;;;16.73;67.55;101877.69;5065191;28;20545;-82
2022/05/01 04:59:25;;;;;;;3.83;3.25;;;;;;;16.79;67.23;101888.50;5051625;28;20040;-83
2022/05/01 05:01:51;;;;;;;4.47;3.40;;;;;;;16.84;67.63;101883.47;5066833;28;20021;-83
2022/05/01 05:04:17;;;;;;;5.15;3.30;;;;;;;16.78;67.50;101878.78;5065089;28;20033;-83
2022/05/01 05:06:42;;;;;;;5.05;3.70;;;;;;;16.72;67.58;101872.31;5066940;28;20029;-83
2022/05/01 05:11:52;;;;;;;4.35;3.65;;;;;;;16.79;67.26;101879.72;5064296;28;20193;-83
2022/05/01 05:14:19;;;;;;;4.43;3.60;;;;;;;16.78;67.33;101878.78;5065274;28;20068;-83
2022/05/01 05:16:46;;;;;;;4.20;3.28;;;;;;;16.81;67.59;101883.34;5069706;28;20064;-83
2022/05/01 05:19:11;;;;;;;;;;;;;;;16.84;67.60;101881.75;5060511;28;20037;-81
2022/05/01 05:21:37;;;;;;;4.90;3.67;;;;;;;16.80;67.61;101890.34;5071016;28;19912;-82
2022/05/01 05:24:02;;;;;;;4.32;3.63;;;;;;;16.82;67.67;101882.50;5071101;28;20016;-82
2022/05/01 05:26:28;;;;;;;5.57;3.85;;;;;;;16.71;67.80;101857.34;5069691;28;20628;-82
2022/05/01 05:28:54;;;;;;;4.53;3.63;;;;;;;16.77;67.50;101878.72;5069709;28;20505;-83
2022/05/01 05:31:19;;;;;;;5.43;4.15;;;;;;;16.74;67.56;101873.28;5060047;28;20043;-82
2022/05/01 05:33:45;;;;;;;4.47;3.67;;;;;;;16.82;67.68;101890.41;5050724;28;20074;-83
2022/05/01 05:36:10;;;;;;;4.43;3.85;;;;;;;16.72;67.88;101867.03;5050774;28;20505;-82
2022/05/01 05:38:38;;;;;;;3.95;3.53;;;;;;;16.82;67.73;101891.31;5062582;28;20029;-83
2022/05/01 05:41:05;;;;;;;4.40;3.92;;;;;;;16.83;67.56;101894.88;5070774;28;20035;-83
2022/05/01 05:43:31;;;;;;;3.67;3.28;;;;;;;16.79;67.75;101884.97;5053108;28;20024;-84
2022/05/01 05:45:56;;;;;;;4.20;3.80;;;;;;;16.81;67.84;101886.88;5049585;28;20043;-79
2022/05/01 05:48:22;;;;;;;3.85;3.45;;;;;;;16.85;67.81;101893.22;5051169;28;20029;-81
2022/05/01 05:50:49;;;;;;;3.75;3.42;;;;;;;16.82;67.78;101888.69;5051123;28;20041;-81
2022/05/01 05:53:14;;;;;;;4.65;3.88;;;;;;;16.74;67.59;101881.22;5075234;28;20063;-84
2022/05/01 05:55:40;;;;;;;3.92;3.53;;;;;;;16.80;67.45;101895.63;5062859;28;20505;-81
2022/05/01 05:58:05;;;;;;;3.58;3.28;;;;;;;16.69;67.66;101878.38;5051875;28;20502;-82
2022/05/01 06:00:32;;;;;;;4.25;3.58;;;;;;;16.76;67.75;101893.63;5052059;28;20089;-84
2022/05/01 06:02:58;;;;;;;3.55;3.25;;;;;;;16.82;67.66;101911.53;5050696;28;20381;-83
2022/05/01 06:05:23;;;;;;;3.83;3.40;;;;;;;16.65;67.49;101874.66;5053401;28;20032;-83
2022/05/01 06:07:49;;;;;;;4.35;3.58;;;;;;;16.82;67.53;101914.16;5054537;28;20024;-84
2022/05/01 06:10:15;;;;;;;3.75;3.42;;;;;;;16.79;67.73;101906.09;5067304;28;20062;-84
2022/05/01 06:12:42;;;;;;;3.58;3.28;;;;;;;16.84;67.75;101923.94;5071845;28;20512;-82
2022/05/01 06:15:08;;;;;;;4.00;3.60;;;;;;;16.75;67.72;101904.13;5071320;28;20032;-83
2022/05/01 06:17:34;;;;;;;4.50;3.53;;;;;;;16.88;67.53;101925.00;5054410;28;20054;-84
2022/05/01 06:19:59;;;;;;;3.42;3.13;;;;;;;16.77;67.50;101906.00;5068419;28;20136;-83
2022/05/01 06:22:25;;;;;;;3.88;3.47;;;;;;;16.83;67.45;101916.88;5067906;28;20016;-85
2022/05/01 06:24:50;;;;;;;3.88;3.47;;;;;;;16.83;67.84;101922.16;5074033;28;20023;-82
2022/05/01 06:27:17;;;;;;;3.75;3.35;;;;;;;16.53;67.67;101866.22;5066515;28;20410;-82
2022/05/01 06:29:44;;;;;;;3.63;3.05;;;;;;;16.85;67.68;101915.22;5083492;28;20025;-84
2022/05/01 06:32:10;;;;;;;4.78;3.50;;;;;;;16.76;67.74;101914.72;5068200;28;20034;-83
2022/05/01 06:34:36;;;;;;;3.50;3.20;;;;;;;16.75;67.91;101912.94;5071275;28;20110;-82
2022/05/01 06:37:05;;;;;;;3.63;3.15;;;;;;;16.77;67.82;101913.91;5052578;28;20041;-82
2022/05/01 06:39:31;;;;;;;4.45;3.55;;;;;;;16.74;67.90;101908.47;5054196;28;20044;-83
2022/05/01 06:41:57;;;;;;;5.00;3.33;;;;;;;16.78;67.77;101915.72;5062953;28;20024;-82
2022/05/01 06:44:22;;;;;;;3.60;3.28;;;;;;;16.67;67.96;101896.75;5070400;28;20040;-83
2022/05/01 06:46:48;;;;;;;3.78;3.25;;;;;;;16.71;67.98;101900.44;5071975;28;20027;-82
2022/05/01 06:49:14;;;;;;;3.60;3.30;;;;;;;16.65;67.84;101887.84;5075631;28;20056;-83
2022/05/01 06:51:42;;;;;;;3.38;3.00;;;;;;;16.54;67.94;101864.47;5085805;28;20027;-83
2022/05/01 06:54:10;;;;;;;3.30;3.00;;;;;;;16.64;68.20;101893.09;5089343;28;20068;-84
2022/05/01 06:56:35;;;;;;;3.60;3.30;;;;;;;16.57;67.92;101883.06;5052156;28;20025;-83
2022/05/01 06:59:02;;;;;;;3.80;3.40;;;;;;;16.60;67.74;101886.75;5070677;28;20035;-83
2022/05/01 07:01:27;;;;;;;3.72;2.97;;;;;;;16.81;67.83;101928.19;5070161;28;20052;-82
2022/05/01 07:03:53;;;;;;;3.53;3.22;;;;;;;16.71;67.80;101912.72;5072101;28;20664;-82
2022/05/01 07:06:19;;;;;;;3.70;3.40;;;;;;;16.47;67.89;101866.81;5053614;28;20418;-82
2022/05/01 07:08:44;;;;;;;3.78;3.30;;;;;;;16.78;67.92;101923.63;5070642;28;20025;-82
2022/05/01 07:11:10;;;;;;;3.50;3.20;;;;;;;16.75;67.87;101922.59;5070469;28;20041;-83
2022/05/01 07:13:36;;;;;;;3.63;3.33;;;;;;;16.85;67.98;101938.06;5071129;28;22438;-83
2022/05/01 07:16:02;;;;;;;4.03;3.40;;;;;;;16.82;67.90;101937.91;5068572;28;20040;-82
2022/05/01 07:18:28;;;;;;;3.58;3.28;;;;;;;16.65;68.04;101913.34;5073032;28;20454;-82
2022/05/01 07:20:53;;;;;;;3.63;3.30;;;;;;;16.30;67.93;101841.38;5054359;28;20025;-83
2022/05/01 07:23:23;;;;;;;4.03;3.30;;;;;;;16.55;68.38;101909.38;5072004;28;20028;-82
2022/05/01 07:25:49;;;;;;;3.72;3.33;;;;;;;16.59;68.70;101934.13;5083753;28;20028;-83
2022/05/01 07:28:14;;;;;;;3.72;3.42;;;;;;;16.71;68.55;101947.91;5074222;28;20040;-83
2022/05/01 07:30:40;;;;;;;3.78;3.03;;;;;;;16.69;68.62;101952.22;5078584;28;20181;-84
2022/05/01 07:33:06;;;;;;;3.67;3.28;;;;;;;16.70;68.50;101943.50;5060096;28;20459;-83
2022/05/01 07:35:31;;;;;;;4.03;3.30;;;;;;;16.59;68.66;101931.50;5071812;28;20032;-84
2022/05/01 07:37:57;;;;;;;4.13;3.53;;;;;;;16.52;68.77;101927.66;5071931;28;20181;-85
2022/05/01 07:40:24;;;;;;;4.20;3.38;;;;;;;16.58;68.80;101942.91;5072461;28;20482;-83
2022/05/01 07:42:52;;;;;;;3.78;3.35;;;;;;;16.54;68.99;101940.94;5072447;28;20037;-84
2022/05/01 07:45:18;;;;;;;3.67;3.22;;;;;;;16.65;68.83;101956.44;5072908;28;20024;-83
2022/05/01 07:47:44;;;;;;;3.88;3.47;;;;;;;16.65;69.00;101958.16;5070992;28;20507;-84
2022/05/01 07:50:10;;;;;;;3.30;3.00;;;;;;;16.61;69.00;101954.47;5069580;28;20025;-83
2022/05/01 07:52:36;;;;;;;3.33;3.03;;;;;;;16.65;69.05;101966.97;5069314;28;20025;-83
2022/05/01 07:55:05;;;;;;;3.63;3.33;;;;;;;16.63;68.98;101963.38;5071281;28;20572;-83
2022/05/01 07:57:31;;;;;;;3.90;3.50;;;;;;;16.67;69.00;101969.69;5071852;28;20035;-83
2022/05/01 07:59:56;;;;;;;4.35;3.55;;;;;;;16.53;69.01;101933.84;5070720;28;20406;-84
2022/05/01 08:02:22;;;;;;;3.55;3.25;;;;;;;16.59;68.74;101955.22;5072058;28;20115;-85
2022/05/01 08:04:48;;;;;;;4.38;3.25;;;;;;;16.68;69.02;101968.88;5071516;28;20037;-83
2022/05/01 08:07:15;;;;;;;3.60;3.30;;;;;;;16.77;68.65;101968.44;5071268;28;20081;-83
2022/05/01 08:09:40;;;;;;;3.60;3.30;;;;;;;16.78;68.72;101967.56;5070499;28;20036;-83
2022/05/01 08:12:06;;;;;;;3.58;3.20;;;;;;;16.73;68.95;101970.00;5071048;28;20035;-83
2022/05/01 08:14:32;;;;;;;3.78;3.25;;;;;;;16.69;68.75;101953.13;5071449;28;20453;-83
2022/05/01 08:16:57;;;;;;;3.70;3.40;;;;;;;16.66;68.62;101947.69;5067697;28;20086;-83
2022/05/01 08:22:08;;;;;;;3.90;3.50;;;;;;;16.77;68.67;101965.78;5088348;28;20615;-83
2022/05/01 08:24:34;;;;;;;4.60;3.35;;;;;;;16.82;68.43;101962.53;5070858;28;20025;-83
2022/05/01 08:27:05;;;;;;;;;;;;;;;16.85;68.48;101968.00;5050709;28;20037;-83
2022/05/01 08:29:35;;;;;;;3.60;3.30;;;;;;;16.65;68.72;101935.34;5069747;28;19919;-83
2022/05/01 08:32:01;;;;;;;3.72;3.33;;;;;;;16.65;68.46;101940.59;5070795;28;20033;-83
2022/05/01 08:34:27;;;;;;;4.03;3.58;;;;;;;16.66;68.42;101934.50;5071666;28;20607;-85
2022/05/01 08:36:53;;;;;;;3.50;3.20;;;;;;;16.74;68.59;101955.97;5070773;28;20421;-83
2022/05/01 08:39:19;;;;;;;5.07;3.42;;;;;;;16.80;68.40;101960.63;5073168;28;20481;-85
2022/05/01 08:41:44;;;;;;;3.70;3.30;;;;;;;16.85;68.55;101970.63;5085908;28;20398;-84
2022/05/01 08:44:13;;;;;;;4.32;3.35;;;;;;;16.79;68.38;101936.00;5086639;28;20173;-85
2022/05/01 08:46:50;;;;;;;4.13;3.35;;;;;;;16.79;68.48;101945.66;5065819;28;20478;-85
2022/05/01 08:49:17;;;;;;;4.03;3.40;;;;;;;16.87;68.22;101953.13;5082710;28;20032;-85
2022/05/01 08:51:43;;;;;;;4.38;3.45;;;;;;;16.89;68.41;101951.47;5070444;28;20024;-85
2022/05/01 08:54:11;;;;;;;4.03;3.30;;;;;;;16.64;68.41;101909.81;5080725;28;20020;-85
2022/05/01 08:56:38;;;;;;;3.88;3.47;;;;;;;16.79;68.47;101937.75;5092096;28;20502;-85
2022/05/01 08:59:05;;;;;;;4.65;3.40;;;;;;;16.89;68.43;101953.22;5090689;28;20020;-85
2022/05/01 09:01:33;;;;;;;4.25;3.70;;;;;;;16.80;68.46;101935.19;5081478;28;20024;-84
2022/05/01 09:03:59;;;;;;;3.40;3.10;;;;;;;16.80;68.54;101939.53;5078437;28;20647;-84
2022/05/01 09:06:24;;;;;;;3.47;3.17;;;;;;;16.88;68.36;101943.47;5060559;28;20031;-88
2022/05/01 09:08:51;;;;;;;3.30;3.00;;;;;;;16.98;68.51;101961.56;5101792;28;20509;-84
2022/05/01 09:14:05;;;;;;;3.50;3.10;;;;;;;16.87;68.30;101944.31;5077005;28;20042;-83
2022/05/01 09:16:31;;;;;;;4.03;3.22;;;;;;;16.76;68.34;101930.56;5078689;28;20161;-84
2022/05/01 09:19:00;;;;;;;3.80;3.47;;;;;;;16.97;68.29;101970.28;5076681;28;20031;-83
2022/05/01 09:21:26;;;;;;;3.50;3.20;;;;;;;16.73;68.06;101924.25;5072909;28;20032;-84
2022/05/01 09:23:51;;;;;;;3.50;3.20;;;;;;;16.99;68.13;101975.66;5072633;28;20028;-83
2022/05/01 09:26:21;;;;;;;3.83;3.17;;;;;;;16.95;67.89;101973.69;5068442;28;20754;-84
2022/05/01 09:28:51;;;;;;;3.67;3.05;;;;;;;17.00;67.88;101974.84;5071897;28;20020;-85
2022/05/01 09:31:46;;;;;;;5.22;3.25;;;;;;;16.99;67.92;101967.72;5079624;28;20036;-84
2022/05/01 09:34:18;;;;;;;4.85;3.30;;;;;;;17.01;67.66;101964.31;5087425;28;20035;-84
2022/05/01 09:36:44;;;;;;;4.18;3.15;;;;;;;16.98;68.20;101953.63;5076719;28;20032;-83
2022/05/01 09:39:10;;;;;;;3.90;3.50;;;;;;;17.01;68.01;101958.16;5078323;28;20040;-83
2022/05/01 09:41:42;;;;;;;4.10;3.50;;;;;;;16.99;68.18;101958.06;5080627;28;20051;-83
2022/05/01 09:44:15;;;;;;;3.85;3.45;;;;;;;16.96;68.33;101946.50;5067026;28;20449;-84
2022/05/01 09:46:43;;;;;;;3.80;3.50;;;;;;;16.81;68.14;101917.66;5060797;28;20029;-84
2022/05/01 09:49:13;;;;;;;4.68;3.25;;;;;;;16.88;68.08;101935.56;5082518;28;20036;-83
2022/05/01 09:51:47;;;;;;;3.85;3.30;;;;;;;16.99;68.17;101958.06;5073855;28;20047;-82
2022/05/01 09:54:26;;;;;;;3.58;3.28;;;;;;;17.02;68.08;101954.69;5074197;28;20028;-81
2022/05/01 09:56:54;;;;;;;3.60;3.30;;;;;;;16.87;68.04;101933.78;5072806;28;20052;-83
2022/05/01 09:59:21;;;;;;;4.03;3.55;;;;;;;17.04;67.95;101956.56;5074175;28;20032;-82
2022/05/01 10:02:05;;;;;;;4.25;3.30;;;;;;;17.03;67.90;101953.84;5073057;28;20085;-81
2022/05/01 10:04:32;;;;;;;6.07;3.50;;;;;;;17.06;68.08;101949.63;5072747;28;20029;-82
2022/05/01 10:06:58;;;;;;;4.68;3.40;;;;;;;17.07;67.99;101942.59;5086795;28;20024;-82
2022/05/01 10:09:28;;;;;;;;;;;;;;;17.10;68.13;101945.38;5085599;28;20413;-82
2022/05/01 10:11:55;;;;;;;3.85;3.45;;;;;;;17.06;68.19;101954.91;5079428;28;19916;-81
2022/05/01 10:14:22;;;;;;;4.57;3.38;;;;;;;17.06;68.27;101954.91;5096834;28;20086;-81
2022/05/01 10:16:48;;;;;;;4.20;3.50;;;;;;;17.07;67.99;101953.16;5073194;28;20111;-82
2022/05/01 10:19:17;;;;;;;3.55;3.25;;;;;;;17.08;68.20;101945.31;5072048;28;20020;-82
2022/05/01 10:21:46;;;;;;;3.65;3.35;;;;;;;17.09;68.46;101946.22;5067036;28;20701;-82
2022/05/01 10:24:12;;;;;;;4.72;3.70;;;;;;;17.13;68.06;101936.72;5075660;28;20428;-82
2022/05/01 10:26:42;;;;;;;3.95;3.55;;;;;;;17.11;67.91;101931.34;5079854;28;20523;-82
2022/05/01 10:29:35;;;;;;;4.95;3.60;;;;;;;17.16;67.97;101932.47;5072585;28;20115;-82
2022/05/01 10:32:21;;;;;;;4.00;3.55;;;;;;;17.15;67.68;101935.06;5081917;28;20115;-82
2022/05/01 10:35:07;;;;;;;3.58;3.28;;;;;;;17.12;68.08;101934.88;5081122;28;20074;-82
2022/05/01 10:38:00;;;;;;;3.88;3.20;;;;;;;17.10;68.32;101932.16;5061012;28;20071;-83
2022/05/01 10:40:39;;;;;;;3.95;3.50;;;;;;;17.06;67.79;101932.91;5074349;28;20051;-81
2022/05/01 10:43:35;;;;;;;5.82;4.20;;;;;;;17.09;67.63;101935.66;5080890;28;20089;-81
2022/05/01 10:46:05;;;;;;;3.97;3.58;;;;;;;17.13;67.89;101911.22;5082167;28;20032;-82
2022/05/01 10:48:36;;;;;;;4.57;3.72;;;;;;;17.15;67.96;101916.56;5082254;28;20036;-81
2022/05/01 10:51:30;;;;;;;4.05;3.63;;;;;;;17.13;67.92;101905.94;5068142;28;20037;-82
2022/05/01 10:54:11;;;;;;;4.65;3.50;;;;;;;17.11;68.02;101902.31;5063028;28;20070;-83
2022/05/01 10:56:38;;;;;;;4.72;3.60;;;;;;;17.16;68.17;101907.81;5053610;28;20029;-82
2022/05/01 10:59:29;;;;;;;4.60;4.00;;;;;;;17.19;67.82;101905.31;5068980;28;20021;-82
2022/05/01 11:02:06;;;;;;;5.13;3.63;;;;;;;17.15;68.22;101900.72;5055162;28;20044;-82
2022/05/01 11:04:41;;;;;;;3.88;3.47;;;;;;;16.83;68.24;101853.56;5081238;28;20024;-83
2022/05/01 11:07:10;;;;;;;5.15;3.63;;;;;;;17.18;68.21;101906.13;5069515;28;20033;-83
2022/05/01 11:09:37;;;;;;;4.30;3.65;;;;;;;17.14;67.94;101898.91;5095809;28;20047;-83
2022/05/01 11:12:07;;;;;;;4.18;3.35;;;;;;;17.13;68.51;101897.13;5085800;28;20035;-83
2022/05/01 11:14:34;;;;;;;4.22;3.80;;;;;;;17.18;68.35;101898.22;5093886;28;20049;-83
2022/05/01 11:16:59;;;;;;;4.07;3.60;;;;;;;17.13;68.13;101890.09;5088105;28;20482;-84
2022/05/01 11:19:31;;;;;;;6.30;3.47;;;;;;;17.38;66.37;101902.66;5072078;28;20023;-86
2022/05/01 11:21:57;;;;;;;5.88;4.03;;;;;;;17.47;64.49;101881.03;5072143;28;20040;-85
2022/05/01 11:24:59;;;;;;;5.68;3.80;;;;;;;17.19;66.46;101885.09;5072217;28;20021;-86
2022/05/01 11:27:25;;;;;;;8.02;4.13;;;;;;;17.00;68.29;101878.09;4966732;28;20145;-86
2022/05/01 11:30:09;;;;;;;6.30;3.70;;;;;;;17.29;66.18;101895.25;5033335;28;20065;-91
2022/05/01 11:32:52;;;;;;;6.72;3.55;;;;;;;17.22;67.47;101886.97;5051688;28;20082;-87
2022/05/01 11:35:19;;;;;;;5.95;3.75;;;;;;;16.97;68.18;101853.28;5084558;28;20037;-85
2022/05/01 11:38:01;;;;;;;9.32;3.78;;;;;;;17.21;68.31;101883.44;5034201;28;20084;-85
2022/05/01 11:40:28;;;;;;;6.10;4.28;;;;;;;16.94;67.91;101834.69;5051615;28;20407;-85
2022/05/01 11:43:14;;;;;;;5.13;3.67;;;;;;;17.24;68.28;101890.56;5035103;28;20091;-83
2022/05/01 11:45:40;;;;;;;4.40;3.60;;;;;;;17.08;68.09;101852.03;5051859;28;20116;-81
2022/05/01 11:48:15;;;;;;;5.40;4.20;;;;;;;17.21;68.07;101861.41;5058972;28;20107;-81
2022/05/01 11:50:45;;;;;;;5.60;3.83;;;;;;;17.22;68.84;101876.41;5071277;28;20039;-83
2022/05/01 11:53:23;;;;;;;7.35;4.00;;;;;;;17.32;68.00;101878.63;5051655;28;20087;-83